createdAt,value
2023-02-26T00:01:52.094Z,0.10
2023-02-26T00:04:20.909Z,0.20
2023-02-26T00:06:57.518Z,0.10
2023-02-26T00:09:28.185Z,0.10
2023-02-26T00:11:56.688Z,0.20
2023-02-26T00:14:25.597Z,0.30
2023-02-26T00:17:52.310Z,0.40
2023-02-26T00:20:20.604Z,0.40
2023-02-26T00:22:49.343Z,0.50
2023-02-26T00:25:17.620Z,0.60
2023-02-26T00:27:46.628Z,0.60
2023-02-26T00:30:15.334Z,0.70
2023-02-26T00:32:44.858Z,0.70
2023-02-26T00:35:17.349Z,0.70
2023-02-26T00:38:12.424Z,0.70
2023-02-26T00:40:50.362Z,0.70
2023-02-26T00:43:26.877Z,0.70
2023-02-26T00:46:34.523Z,0.70
2023-02-26T00:49:45.254Z,0.70
2023-02-26T00:52:51.369Z,0.70
2023-02-26T00:55:19.923Z,0.80
2023-02-26T00:57:47.848Z,0.70
2023-02-26T01:00:17.336Z,0.90
2023-02-26T01:02:47.295Z,1.00
2023-02-26T01:05:18.742Z,1.00
2023-02-26T01:08:54.874Z,1.10
2023-02-26T01:11:23.535Z,1.00
2023-02-26T01:13:52.176Z,0.90
2023-02-26T01:16:29.482Z,0.80
2023-02-26T01:19:26.829Z,0.80
2023-02-26T01:22:16.159Z,0.70
2023-02-26T01:24:47.661Z,0.60
2023-02-26T01:27:16.116Z,0.60
2023-02-26T01:29:45.172Z,0.50
2023-02-26T01:33:14.961Z,0.30
2023-02-26T01:36:04.267Z,0.20
2023-02-26T01:39:26.240Z,0.50
2023-02-26T01:42:16.895Z,0.40
2023-02-26T01:45:27.914Z,0.40
2023-02-26T01:48:12.445Z,0.50
2023-02-26T01:50:41.050Z,0.40
2023-02-26T01:53:27.349Z,0.30
2023-02-26T01:56:19.515Z,0.40
2023-02-26T01:58:50.916Z,0.20
2023-02-26T02:01:19.130Z,0.30
2023-02-26T02:03:47.634Z,0.30
2023-02-26T02:06:28.814Z,0.50
2023-02-26T02:08:58.020Z,0.40
2023-02-26T02:11:26.280Z,0.40
2023-02-26T02:14:13.253Z,0.50
2023-02-26T02:17:23.008Z,0.60
2023-02-26T02:20:37.977Z,0.60
2023-02-26T02:23:50.397Z,0.70
2023-02-26T02:26:53.897Z,0.60
2023-02-26T02:30:03.386Z,0.50
2023-02-26T02:33:03.730Z,0.50
2023-02-26T02:35:52.669Z,0.50
2023-02-26T02:38:37.948Z,0.50
2023-02-26T02:41:32.780Z,0.30
2023-02-26T02:44:14.257Z,0.20
2023-02-26T02:46:47.447Z,0.20
2023-02-26T02:50:38.244Z,0.20
2023-02-26T02:53:24.983Z,0.10
2023-02-26T02:56:11.198Z,-0.10
2023-02-26T02:58:58.800Z,-0.20
2023-02-26T03:01:31.927Z,-0.30
2023-02-26T03:04:15.068Z,-0.40
2023-02-26T03:06:45.449Z,-0.40
2023-02-26T03:09:14.171Z,-0.50
2023-02-26T03:11:43.031Z,-0.50
2023-02-26T03:14:15.728Z,-0.50
2023-02-26T03:17:50.732Z,-0.60
2023-02-26T03:20:34.446Z,-0.70
2023-02-26T03:23:23.966Z,-0.60
2023-02-26T03:26:22.119Z,-0.60
2023-02-26T03:29:55.112Z,-0.70
2023-02-26T03:32:35.422Z,-0.70
2023-02-26T03:35:48.094Z,-0.70
2023-02-26T03:38:48.003Z,-0.70
2023-02-26T03:41:32.632Z,-0.80
2023-02-26T03:44:39.509Z,-0.80
2023-02-26T03:47:16.192Z,-0.70
2023-02-26T03:50:34.782Z,-0.80
2023-02-26T03:53:40.365Z,-0.80
2023-02-26T03:56:40.566Z,-0.90
2023-02-26T03:59:26.757Z,-0.90
2023-02-26T04:02:34.733Z,-0.90
2023-02-26T04:05:25.821Z,-0.80
2023-02-26T04:07:56.669Z,-0.70
2023-02-26T04:10:44.131Z,-0.90
2023-02-26T04:13:12.442Z,-0.90
2023-02-26T04:15:40.339Z,-0.80
2023-02-26T04:18:08.109Z,-0.90
2023-02-26T04:20:36.152Z,-1.00
2023-02-26T04:23:03.999Z,-0.90
2023-02-26T04:25:31.844Z,-0.90
2023-02-26T04:28:02.264Z,-0.90
2023-02-26T04:30:30.438Z,-0.90
2023-02-26T04:32:59.204Z,-1.00
2023-02-26T04:35:27.080Z,-0.90
2023-02-26T04:37:57.741Z,-1.00
2023-02-26T04:40:26.271Z,-1.00
2023-02-26T04:42:54.318Z,-1.00
2023-02-26T04:45:26.076Z,-1.20
2023-02-26T04:47:54.252Z,-1.20
2023-02-26T04:50:22.409Z,-1.10
2023-02-26T04:52:53.125Z,-1.00
2023-02-26T04:55:21.450Z,-1.00
2023-02-26T04:57:49.352Z,-1.00
2023-02-26T05:00:22.598Z,-1.10
2023-02-26T05:02:50.541Z,-1.20
2023-02-26T05:05:18.588Z,-1.10
2023-02-26T05:07:46.582Z,-1.00
2023-02-26T05:10:16.428Z,-0.90
2023-02-26T05:12:44.153Z,-0.90
2023-02-26T05:15:12.371Z,-1.00
2023-02-26T05:17:40.457Z,-0.90
2023-02-26T05:20:12.846Z,-0.80
2023-02-26T05:22:41.567Z,-0.70
2023-02-26T05:25:14.615Z,-0.60
2023-02-26T05:27:43.791Z,-0.60
2023-02-26T05:30:16.319Z,-0.40
2023-02-26T05:32:45.672Z,-0.40
2023-02-26T05:35:14.064Z,-0.50
2023-02-26T05:37:42.377Z,-0.50
2023-02-26T05:40:11.981Z,-0.60
2023-02-26T05:42:40.989Z,-0.60
2023-02-26T05:45:10.143Z,-0.80
2023-02-26T05:47:38.925Z,-0.60
2023-02-26T05:50:08.701Z,-0.60
2023-02-26T05:52:36.552Z,-0.60
2023-02-26T05:55:05.993Z,-0.40
2023-02-26T05:57:33.682Z,-0.50
2023-02-26T06:00:01.799Z,-0.60
2023-02-26T06:02:29.556Z,-0.50
2023-02-26T06:04:57.261Z,-0.60
2023-02-26T06:07:25.151Z,-0.60
2023-02-26T06:09:52.899Z,-0.70
2023-02-26T06:12:20.772Z,-0.60
2023-02-26T06:14:48.440Z,-0.60
2023-02-26T06:17:16.394Z,-0.60
2023-02-26T06:19:45.003Z,-0.50
2023-02-26T06:22:12.926Z,-0.50
2023-02-26T06:24:40.565Z,-0.60
2023-02-26T06:27:08.631Z,-0.60
2023-02-26T06:29:37.717Z,-0.70
2023-02-26T06:32:07.508Z,-0.60
2023-02-26T06:34:35.668Z,-0.70
2023-02-26T06:37:03.377Z,-0.60
2023-02-26T06:39:31.656Z,-0.50
2023-02-26T06:41:59.967Z,-0.40
2023-02-26T06:44:27.968Z,-0.40
2023-02-26T06:46:55.572Z,-0.50
2023-02-26T06:49:23.365Z,-0.50
2023-02-26T06:51:51.403Z,-0.50
2023-02-26T06:54:19.236Z,-0.50
2023-02-26T06:56:47.114Z,-0.50
2023-02-26T06:59:16.489Z,-0.50
2023-02-26T07:01:44.350Z,-0.40
2023-02-26T07:04:12.239Z,-0.30
2023-02-26T07:06:40.339Z,-0.40
2023-02-26T07:09:08.546Z,-0.30
2023-02-26T07:11:36.322Z,-0.20
2023-02-26T07:14:04.158Z,-0.20
2023-02-26T07:16:35.584Z,-0.20
2023-02-26T07:19:03.445Z,-0.20
2023-02-26T07:21:31.374Z,-0.10
2023-02-26T07:23:59.107Z,0.30
2023-02-26T07:26:27.154Z,0.70
2023-02-26T07:28:55.213Z,1.20
2023-02-26T07:31:23.307Z,1.60
2023-02-26T07:33:51.227Z,2.00
2023-02-26T07:36:19.001Z,2.20
2023-02-26T07:38:46.726Z,2.30
2023-02-26T07:41:14.541Z,2.50
2023-02-26T07:43:42.878Z,2.70
2023-02-26T07:46:11.136Z,2.90
2023-02-26T07:48:41.340Z,2.50
2023-02-26T07:51:11.342Z,2.30
2023-02-26T07:53:39.070Z,2.10
2023-02-26T07:56:07.464Z,2.20
2023-02-26T07:58:35.379Z,2.10
2023-02-26T08:01:03.517Z,2.20
2023-02-26T08:03:32.343Z,2.20
2023-02-26T08:06:00.525Z,2.10
2023-02-26T08:08:28.853Z,2.20
2023-02-26T08:10:58.977Z,2.50
2023-02-26T08:13:27.415Z,2.60
2023-02-26T08:15:55.256Z,2.90
2023-02-26T08:18:23.063Z,3.30
2023-02-26T08:20:52.758Z,3.70
2023-02-26T08:23:20.760Z,3.90
2023-02-26T08:25:49.253Z,4.00
2023-02-26T08:28:17.229Z,3.90
2023-02-26T08:30:45.163Z,4.40
2023-02-26T08:33:12.875Z,4.40
2023-02-26T08:35:40.948Z,4.50
2023-02-26T08:38:08.649Z,4.40
2023-02-26T08:40:36.633Z,4.50
2023-02-26T08:43:04.862Z,4.80
2023-02-26T08:45:32.790Z,5.20
2023-02-26T08:48:00.878Z,5.20
2023-02-26T08:50:28.888Z,4.60
2023-02-26T08:52:59.084Z,4.70
2023-02-26T08:55:27.198Z,5.10
2023-02-26T08:57:55.434Z,5.20
2023-02-26T09:00:23.591Z,5.30
2023-02-26T09:02:53.008Z,4.90
2023-02-26T09:05:21.015Z,5.20
2023-02-26T09:07:48.755Z,5.40
2023-02-26T09:10:17.634Z,5.50
2023-02-26T09:12:46.790Z,5.50
2023-02-26T09:15:15.198Z,5.50
2023-02-26T09:17:44.205Z,5.20
2023-02-26T09:20:14.489Z,5.20
2023-02-26T09:22:42.698Z,5.00
2023-02-26T09:25:11.934Z,4.80
2023-02-26T09:27:39.851Z,4.80
2023-02-26T09:30:10.144Z,4.30
2023-02-26T09:32:38.465Z,4.60
2023-02-26T09:35:07.400Z,4.60
2023-02-26T09:37:35.610Z,4.40
2023-02-26T09:40:04.524Z,4.00
2023-02-26T09:43:31.583Z,3.60
2023-02-26T09:46:52.680Z,3.40
2023-02-26T09:50:19.215Z,3.10
2023-02-26T09:53:31.485Z,3.10
2023-02-26T09:56:16.787Z,3.20
2023-02-26T09:58:47.042Z,3.30
2023-02-26T10:01:49.484Z,3.10
2023-02-26T10:05:02.659Z,3.00
2023-02-26T10:08:04.537Z,3.10
2023-02-26T10:11:21.818Z,3.10
2023-02-26T10:14:15.496Z,3.10
2023-02-26T10:16:59.672Z,3.30
2023-02-26T10:19:45.188Z,3.50
2023-02-26T10:22:40.217Z,3.60
2023-02-26T10:25:31.444Z,3.40
2023-02-26T10:28:49.841Z,3.30
2023-02-26T10:32:04.670Z,3.20
2023-02-26T10:35:03.184Z,3.00
2023-02-26T10:38:16.291Z,3.30
2023-02-26T10:41:02.027Z,3.50
2023-02-26T10:43:48.120Z,3.60
2023-02-26T10:46:55.729Z,3.50
2023-02-26T10:49:54.082Z,3.60
2023-02-26T10:52:31.684Z,3.40
2023-02-26T10:55:52.697Z,3.10
2023-02-26T10:58:27.185Z,3.20
2023-02-26T11:00:57.454Z,3.30
2023-02-26T11:03:40.569Z,3.30
2023-02-26T11:06:15.036Z,3.30
2023-02-26T11:08:54.619Z,3.50
2023-02-26T11:12:18.206Z,3.50
2023-02-26T11:14:49.179Z,3.60
2023-02-26T11:17:32.562Z,3.70
2023-02-26T11:20:33.891Z,3.60
2023-02-26T11:23:13.183Z,3.70
2023-02-26T11:25:42.449Z,3.80
2023-02-26T11:28:37.021Z,3.90
2023-02-26T11:31:16.441Z,4.00
2023-02-26T11:34:05.292Z,4.10
2023-02-26T11:36:39.795Z,4.30
2023-02-26T11:39:40.001Z,4.20
2023-02-26T11:42:18.117Z,4.20
2023-02-26T11:44:52.224Z,4.00
2023-02-26T11:47:33.296Z,4.20
2023-02-26T11:50:19.308Z,4.20
2023-02-26T11:53:08.902Z,4.20
2023-02-26T11:55:54.755Z,4.30
2023-02-26T11:58:37.964Z,4.30
2023-02-26T12:01:14.472Z,4.20
2023-02-26T12:03:51.302Z,4.10
2023-02-26T12:06:25.122Z,4.10
2023-02-26T12:08:54.272Z,4.00
2023-02-26T12:12:04.373Z,4.10
2023-02-26T12:15:26.891Z,3.90
2023-02-26T12:18:37.497Z,3.80
2023-02-26T12:22:23.632Z,3.80
2023-02-26T12:25:50.658Z,3.80
2023-02-26T12:29:12.325Z,4.10
2023-02-26T12:32:26.599Z,4.10
2023-02-26T12:36:05.935Z,4.40
2023-02-26T12:39:37.720Z,4.40
2023-02-26T12:43:34.122Z,4.40
2023-02-26T12:46:34.242Z,4.40
2023-02-26T12:49:50.938Z,4.50
2023-02-26T12:52:58.956Z,4.60
2023-02-26T12:56:44.369Z,4.60
2023-02-26T12:59:43.862Z,4.50
2023-02-26T13:03:04.025Z,4.40
2023-02-26T13:06:35.796Z,4.50
2023-02-26T13:09:33.900Z,4.50
2023-02-26T13:12:45.300Z,4.30
2023-02-26T13:15:48.546Z,4.30
2023-02-26T13:19:49.425Z,4.30
2023-02-26T13:22:44.061Z,4.20
2023-02-26T13:25:56.489Z,4.00
2023-02-26T13:29:18.056Z,4.00
2023-02-26T13:32:24.089Z,4.20
2023-02-26T13:35:20.674Z,4.30
2023-02-26T13:37:56.409Z,4.50
2023-02-26T13:41:16.040Z,4.60
2023-02-26T13:44:32.863Z,4.60
2023-02-26T13:47:47.201Z,4.70
2023-02-26T13:51:23.761Z,5.00
2023-02-26T13:54:16.712Z,5.00
2023-02-26T13:57:08.606Z,4.60
2023-02-26T13:59:53.864Z,4.40
2023-02-26T14:02:43.525Z,4.40
2023-02-26T14:05:49.401Z,4.40
2023-02-26T14:08:47.835Z,4.50
2023-02-26T14:11:29.187Z,4.50
2023-02-26T14:14:25.785Z,4.60
2023-02-26T14:17:09.680Z,4.90
2023-02-26T14:20:25.414Z,5.00
2023-02-26T14:23:10.070Z,4.90
2023-02-26T14:26:16.268Z,4.70
2023-02-26T14:29:07.817Z,4.90
2023-02-26T14:32:13.659Z,4.80
2023-02-26T14:35:03.422Z,4.80
2023-02-26T14:37:38.151Z,4.90
2023-02-26T14:40:21.954Z,4.80
2023-02-26T14:43:14.510Z,4.80
2023-02-26T14:45:46.025Z,4.80
2023-02-26T14:48:24.902Z,4.80
2023-02-26T14:51:35.283Z,4.80
2023-02-26T14:54:38.433Z,4.80
2023-02-26T14:57:55.078Z,4.80
2023-02-26T15:01:12.553Z,4.90
2023-02-26T15:04:37.255Z,4.80
2023-02-26T15:08:03.762Z,4.70
2023-02-26T15:11:23.493Z,4.70
2023-02-26T15:15:27.038Z,4.90
2023-02-26T15:18:49.812Z,4.90
2023-02-26T15:22:00.043Z,5.00
2023-02-26T15:24:31.672Z,4.90
2023-02-26T15:27:08.711Z,4.80
2023-02-26T15:29:42.125Z,4.70
2023-02-26T15:32:30.228Z,4.70
2023-02-26T15:35:16.074Z,4.80
2023-02-26T15:37:53.217Z,4.80
2023-02-26T15:40:22.082Z,4.80
2023-02-26T15:42:56.254Z,4.70
2023-02-26T15:45:41.979Z,4.70
2023-02-26T15:48:31.771Z,4.60
2023-02-26T15:51:13.316Z,4.70
2023-02-26T15:53:49.879Z,4.80
2023-02-26T15:56:29.580Z,4.70
2023-02-26T15:59:18.979Z,4.60
2023-02-26T16:01:53.260Z,4.60
2023-02-26T16:04:24.621Z,4.60
2023-02-26T16:06:58.950Z,4.60
2023-02-26T16:09:39.090Z,4.60
2023-02-26T16:12:38.742Z,4.60
2023-02-26T16:15:21.133Z,4.60
2023-02-26T16:17:56.316Z,4.60
2023-02-26T16:20:35.562Z,4.60
2023-02-26T16:23:15.131Z,4.60
2023-02-26T16:26:02.166Z,4.50
2023-02-26T16:28:48.216Z,4.40
2023-02-26T16:31:27.932Z,4.40
2023-02-26T16:34:03.356Z,4.30
2023-02-26T16:36:42.575Z,4.20
2023-02-26T16:39:31.721Z,4.10
2023-02-26T16:42:53.050Z,4.00
2023-02-26T16:45:52.459Z,4.00
2023-02-26T16:48:31.775Z,3.90
2023-02-26T16:51:16.986Z,3.90
2023-02-26T16:54:01.786Z,4.00
2023-02-26T16:56:43.162Z,3.90
2023-02-26T16:59:26.270Z,3.80
2023-02-26T17:02:05.309Z,3.80
2023-02-26T17:04:37.429Z,3.80
2023-02-26T17:07:47.366Z,3.90
2023-02-26T17:10:33.161Z,3.70
2023-02-26T17:13:27.886Z,3.70
2023-02-26T17:16:10.116Z,3.50
2023-02-26T17:18:38.496Z,3.30
2023-02-26T17:21:07.021Z,3.10
2023-02-26T17:23:39.118Z,3.00
2023-02-26T17:26:07.632Z,3.00
2023-02-26T17:28:42.928Z,3.10
2023-02-26T17:31:12.874Z,3.00
2023-02-26T17:33:46.122Z,2.80
2023-02-26T17:36:20.485Z,2.80
2023-02-26T17:38:50.170Z,2.90
2023-02-26T17:41:19.974Z,3.00
2023-02-26T17:43:48.286Z,2.90
2023-02-26T17:46:16.462Z,2.90
2023-02-26T17:48:45.020Z,3.10
2023-02-26T17:51:16.048Z,3.10
2023-02-26T17:53:46.842Z,3.00
2023-02-26T17:56:32.941Z,3.00
2023-02-26T17:59:02.717Z,3.00
2023-02-26T18:01:31.790Z,3.00
2023-02-26T18:04:01.569Z,3.00
2023-02-26T18:06:37.704Z,2.90
2023-02-26T18:09:06.936Z,3.10
2023-02-26T18:11:35.219Z,3.00
2023-02-26T18:14:05.164Z,2.90
2023-02-26T18:16:45.478Z,2.90
2023-02-26T18:19:15.636Z,3.10
2023-02-26T18:21:43.645Z,3.30
2023-02-26T18:24:11.446Z,3.20
2023-02-26T18:26:39.319Z,3.40
2023-02-26T18:29:06.904Z,3.40
2023-02-26T18:31:35.846Z,3.40
2023-02-26T18:34:04.289Z,3.30
2023-02-26T18:36:38.129Z,3.50
2023-02-26T18:39:15.471Z,3.50
2023-02-26T18:41:43.426Z,3.40
2023-02-26T18:44:11.255Z,3.50
2023-02-26T18:46:41.850Z,3.40
2023-02-26T18:49:21.331Z,3.40
2023-02-26T18:51:49.326Z,3.30
2023-02-26T18:54:17.271Z,3.30
2023-02-26T18:56:47.013Z,3.30
2023-02-26T18:59:14.740Z,3.20
2023-02-26T19:01:42.794Z,3.20
2023-02-26T19:04:11.191Z,3.20
2023-02-26T19:06:39.089Z,3.10
2023-02-26T19:09:07.037Z,3.00
2023-02-26T19:11:38.126Z,3.00
2023-02-26T19:14:06.527Z,3.10
2023-02-26T19:16:38.266Z,3.20
2023-02-26T19:19:11.785Z,3.10
2023-02-26T19:21:41.442Z,3.00
2023-02-26T19:24:14.177Z,3.00
2023-02-26T19:26:44.373Z,3.10
2023-02-26T19:29:20.166Z,3.10
2023-02-26T19:31:48.409Z,3.00
2023-02-26T19:34:16.563Z,3.00
2023-02-26T19:36:48.441Z,2.90
2023-02-26T19:39:18.836Z,2.90
2023-02-26T19:41:49.356Z,2.90
2023-02-26T19:44:20.475Z,2.70
2023-02-26T19:46:50.679Z,2.50
2023-02-26T19:49:19.537Z,2.50
2023-02-26T19:51:47.862Z,2.60
2023-02-26T19:54:16.186Z,2.60
2023-02-26T19:56:45.118Z,2.50
2023-02-26T19:59:13.527Z,2.50
2023-02-26T20:01:42.549Z,2.60
2023-02-26T20:04:11.010Z,2.70
2023-02-26T20:06:38.930Z,2.60
2023-02-26T20:09:07.345Z,2.70
2023-02-26T20:11:37.270Z,2.70
2023-02-26T20:14:05.178Z,2.80
2023-02-26T20:16:32.960Z,2.80
2023-02-26T20:19:01.231Z,2.70
2023-02-26T20:21:29.198Z,2.80
2023-02-26T20:23:57.784Z,2.70
2023-02-26T20:26:27.064Z,2.80
2023-02-26T20:28:55.062Z,2.90
2023-02-26T20:31:23.094Z,2.90
2023-02-26T20:33:51.470Z,2.90
2023-02-26T20:36:20.067Z,3.10
2023-02-26T20:38:48.025Z,3.10
2023-02-26T20:41:15.945Z,3.20
2023-02-26T20:43:43.953Z,3.20
2023-02-26T20:46:13.136Z,3.20
2023-02-26T20:48:43.151Z,3.10
2023-02-26T20:51:12.328Z,3.10
2023-02-26T20:53:40.519Z,3.20
2023-02-26T20:56:09.083Z,3.20
2023-02-26T20:58:38.485Z,3.20
2023-02-26T21:01:06.522Z,3.20
2023-02-26T21:03:34.363Z,3.10
2023-02-26T21:06:02.398Z,3.00
2023-02-26T21:08:30.091Z,3.00
2023-02-26T21:10:57.951Z,3.00
2023-02-26T21:13:25.715Z,3.10
2023-02-26T21:15:54.103Z,3.00
2023-02-26T21:18:21.925Z,2.90
2023-02-26T21:20:51.015Z,2.90
2023-02-26T21:23:18.973Z,2.90
2023-02-26T21:25:46.875Z,2.80
2023-02-26T21:28:14.705Z,2.70
2023-02-26T21:30:42.460Z,2.80
2023-02-26T21:33:10.574Z,2.60
2023-02-26T21:35:38.442Z,2.40
2023-02-26T21:38:06.276Z,2.20
2023-02-26T21:40:36.020Z,2.10
2023-02-26T21:43:04.535Z,2.00
2023-02-26T21:45:34.391Z,2.00
2023-02-26T21:48:04.607Z,1.80
2023-02-26T21:50:34.969Z,1.80
2023-02-26T21:53:03.013Z,1.60
2023-02-26T21:55:31.005Z,1.50
2023-02-26T21:57:59.272Z,1.50
2023-02-26T22:00:27.297Z,1.50
2023-02-26T22:02:56.156Z,1.70
2023-02-26T22:05:24.108Z,1.70
2023-02-26T22:07:52.754Z,1.80
2023-02-26T22:10:21.188Z,2.00
2023-02-26T22:12:49.956Z,2.00
2023-02-26T22:15:18.128Z,2.00
2023-02-26T22:17:46.023Z,1.90
2023-02-26T22:20:14.336Z,1.90
2023-02-26T22:22:42.346Z,1.90
2023-02-26T22:25:12.720Z,1.90
2023-02-26T22:27:41.206Z,1.80
2023-02-26T22:30:14.034Z,1.80
2023-02-26T22:32:46.261Z,1.70
2023-02-26T22:35:14.899Z,1.70
2023-02-26T22:37:44.245Z,1.80
2023-02-26T22:40:15.086Z,1.80
2023-02-26T22:42:47.960Z,1.70
2023-02-26T22:45:17.848Z,1.70
2023-02-26T22:47:48.856Z,1.80
2023-02-26T22:50:20.740Z,1.70
2023-02-26T22:52:49.495Z,1.50
2023-02-26T22:55:18.082Z,1.40
2023-02-26T22:57:46.082Z,1.50
2023-02-26T23:00:19.994Z,1.40
2023-02-26T23:02:51.101Z,1.30
2023-02-26T23:05:20.798Z,1.20
2023-02-26T23:07:50.773Z,1.10
2023-02-26T23:10:21.814Z,1.10
2023-02-26T23:12:50.286Z,1.20
2023-02-26T23:15:18.900Z,1.10
2023-02-26T23:17:47.231Z,1.20
2023-02-26T23:20:15.311Z,1.30
2023-02-26T23:22:44.309Z,1.30
2023-02-26T23:25:13.071Z,1.20
2023-02-26T23:27:41.105Z,1.10
2023-02-26T23:30:11.191Z,1.00
2023-02-26T23:32:39.516Z,1.00
2023-02-26T23:35:08.221Z,0.80
2023-02-26T23:37:36.323Z,0.80
2023-02-26T23:40:04.625Z,0.80
2023-02-26T23:42:32.575Z,0.70
2023-02-26T23:45:00.778Z,0.70
2023-02-26T23:47:29.369Z,0.90
2023-02-26T23:49:57.300Z,0.90
2023-02-26T23:52:27.537Z,0.90
2023-02-26T23:54:56.925Z,0.90
2023-02-26T23:57:26.012Z,0.80
2023-02-26T23:59:54.381Z,0.80
